createdAt,value
2019-04-05T00:01:30.384Z,99226.63
2019-04-05T00:03:57.873Z,99220.70
2019-04-05T00:06:25.369Z,99215.36
2019-04-05T00:08:52.849Z,99205.01
2019-04-05T00:11:20.364Z,99210.83
2019-04-05T00:13:47.921Z,99212.38
2019-04-05T00:16:15.367Z,99217.47
2019-04-05T00:18:42.807Z,99217.49
2019-04-05T00:21:10.208Z,99230.40
2019-04-05T00:23:37.763Z,99226.14
2019-04-05T00:26:05.559Z,99237.30
2019-04-05T00:28:33.008Z,99228.41
2019-04-05T00:31:00.425Z,99235.28
2019-04-05T00:33:28.013Z,99231.70
2019-04-05T00:35:55.403Z,99232.44
2019-04-05T00:38:22.802Z,99229.46
2019-04-05T00:40:50.234Z,99236.35
2019-04-05T00:43:17.628Z,99241.55
2019-04-05T00:45:45.118Z,99251.05
2019-04-05T00:48:12.528Z,99251.05
2019-04-05T00:50:40.003Z,99254.52
2019-04-05T00:53:07.514Z,99248.07
2019-04-05T00:55:35.193Z,99248.22
2019-04-05T00:58:02.660Z,99254.26
2019-04-05T01:00:30.398Z,99257.80
2019-04-05T01:02:57.792Z,99260.53
2019-04-05T01:05:25.233Z,99265.84
2019-04-05T01:07:52.628Z,99267.14
2019-04-05T01:10:20.193Z,99274.30
2019-04-05T01:12:47.575Z,99276.42
2019-04-05T01:15:15.130Z,99278.30
2019-04-05T01:17:43.123Z,99279.01
2019-04-05T01:20:10.885Z,99283.89
2019-04-05T01:22:38.882Z,99287.32
2019-04-05T01:25:06.438Z,99296.69
2019-04-05T01:27:34.509Z,99301.17
2019-04-05T01:30:02.055Z,99302.50
2019-04-05T01:32:29.930Z,99301.28
2019-04-05T01:34:57.388Z,99301.28
2019-04-05T01:37:25.113Z,99307.45
2019-04-05T01:39:52.591Z,99310.88
2019-04-05T01:42:20.094Z,99311.36
2019-04-05T01:44:47.776Z,99316.10
2019-04-05T01:47:20.873Z,99316.95
2019-04-05T01:50:02.578Z,99309.73
2019-04-05T01:52:30.094Z,99312.80
2019-04-05T01:54:57.959Z,99306.75
2019-04-05T01:57:25.384Z,99310.42
2019-04-05T01:59:52.963Z,99313.27
2019-04-05T02:02:20.553Z,99305.91
2019-04-05T02:04:48.025Z,99311.50
2019-04-05T02:07:15.738Z,99318.16
2019-04-05T02:09:43.365Z,99320.44
2019-04-05T02:12:10.955Z,99312.95
2019-04-05T02:14:38.642Z,99315.43
2019-04-05T02:17:10.398Z,99312.12
2019-04-05T02:19:37.884Z,99317.70
2019-04-05T02:22:05.665Z,99321.51
2019-04-05T02:24:33.030Z,99318.88
2019-04-05T02:27:00.512Z,99317.59
2019-04-05T02:29:27.968Z,99321.12
2019-04-05T02:31:55.698Z,99318.16
2019-04-05T02:34:23.158Z,99317.94
2019-04-05T02:36:50.607Z,99316.14
2019-04-05T02:39:18.108Z,99317.45
2019-04-05T02:41:45.849Z,99319.12
2019-04-05T02:44:13.644Z,99328.61
2019-04-05T02:46:42.779Z,99324.48
2019-04-05T02:49:10.378Z,99329.70
2019-04-05T02:51:38.515Z,99327.43
2019-04-05T02:54:06.207Z,99321.95
2019-04-05T02:56:35.600Z,99325.28
2019-04-05T02:59:03.271Z,99322.81
2019-04-05T03:01:32.054Z,99320.67
2019-04-05T03:03:59.831Z,99312.14
2019-04-05T03:06:28.084Z,99322.33
2019-04-05T03:08:55.687Z,99319.26
2019-04-05T03:11:26.745Z,99314.75
2019-04-05T03:13:56.434Z,99318.67
2019-04-05T03:16:40.424Z,99309.77
2019-04-05T03:19:04.335Z,99306.84
2019-04-05T03:21:32.905Z,99300.53
2019-04-05T03:24:03.622Z,99300.05
2019-04-05T03:26:34.195Z,99301.50
2019-04-05T03:29:04.236Z,99303.64
2019-04-05T03:31:31.784Z,99299.23
2019-04-05T03:33:59.702Z,99301.14
2019-04-05T03:36:27.505Z,99299.47
2019-04-05T03:38:55.395Z,99292.48
2019-04-05T03:41:23.025Z,99289.02
2019-04-05T03:43:50.537Z,99295.44
2019-04-05T03:46:18.215Z,99305.28
2019-04-05T03:48:45.932Z,99307.65
2019-04-05T03:51:13.375Z,99312.75
2019-04-05T03:53:40.874Z,99326.41
2019-04-05T03:56:08.423Z,99329.73
2019-04-05T03:58:35.807Z,99325.91
2019-04-05T04:01:03.448Z,99331.04
2019-04-05T04:03:30.905Z,99329.48
2019-04-05T04:05:59.023Z,99312.77
2019-04-05T04:08:26.448Z,99317.51
2019-04-05T04:10:54.581Z,99329.95
2019-04-05T04:13:22.165Z,99326.86
2019-04-05T04:15:50.382Z,99330.22
2019-04-05T04:18:17.863Z,99335.77
2019-04-05T04:20:47.983Z,99337.66
2019-04-05T04:23:15.404Z,99333.15
2019-04-05T04:25:42.899Z,99331.61
2019-04-05T04:28:10.462Z,99325.23
2019-04-05T04:30:37.967Z,99325.43
2019-04-05T04:33:05.785Z,99327.11
2019-04-05T04:35:33.490Z,99332.19
2019-04-05T04:38:01.063Z,99334.95
2019-04-05T04:40:28.804Z,99340.77
2019-04-05T04:42:56.231Z,99345.14
2019-04-05T04:45:23.622Z,99346.33
2019-04-05T04:47:51.061Z,99349.62
2019-04-05T04:50:19.151Z,99354.38
2019-04-05T04:52:46.982Z,99344.77
2019-04-05T04:55:14.463Z,99344.52
2019-04-05T04:57:42.007Z,99336.60
2019-04-05T05:00:09.772Z,99348.81
2019-04-05T05:02:37.223Z,99354.52
2019-04-05T05:05:05.883Z,99357.37
2019-04-05T05:07:33.507Z,99359.84
2019-04-05T05:10:03.320Z,99366.73
2019-04-05T05:12:30.378Z,99369.58
2019-04-05T05:14:57.908Z,99367.42
2019-04-05T05:17:37.465Z,99359.97
2019-04-05T05:19:54.850Z,99362.58
2019-04-05T05:22:22.779Z,99366.98
2019-04-05T05:24:53.013Z,99365.54
2019-04-05T05:27:20.871Z,99360.46
2019-04-05T05:29:48.273Z,99370.66
2019-04-05T05:32:15.828Z,99372.89
2019-04-05T05:34:43.523Z,99365.18
2019-04-05T05:37:11.053Z,99369.69
2019-04-05T05:39:38.474Z,99363.29
2019-04-05T05:42:05.928Z,99360.45
2019-04-05T05:44:33.325Z,99368.95
2019-04-05T05:47:00.778Z,99382.38
2019-04-05T05:49:28.148Z,99383.30
2019-04-05T05:51:55.854Z,99383.30
2019-04-05T05:54:23.372Z,99384.73
2019-04-05T05:56:50.972Z,99383.09
2019-04-05T05:59:18.539Z,99387.83
2019-04-05T06:01:46.126Z,99389.25
2019-04-05T06:04:13.892Z,99382.14
2019-04-05T06:06:41.431Z,99380.69
2019-04-05T06:09:09.051Z,99386.55
2019-04-05T06:11:36.652Z,99386.41
2019-04-05T06:14:04.271Z,99389.61
2019-04-05T06:16:31.832Z,99391.16
2019-04-05T06:18:59.492Z,99402.56
2019-04-05T06:21:27.212Z,99410.16
2019-04-05T06:23:54.773Z,99408.25
2019-04-05T06:26:22.295Z,99398.39
2019-04-05T06:28:50.093Z,99395.55
2019-04-05T06:31:17.852Z,99395.79
2019-04-05T06:33:45.471Z,99399.11
2019-04-05T06:36:13.072Z,99405.39
2019-04-05T06:38:40.671Z,99405.49
2019-04-05T06:41:08.272Z,99410.62
2019-04-05T06:43:36.193Z,99410.38
2019-04-05T06:46:03.878Z,99401.83
2019-04-05T06:48:31.752Z,99402.78
2019-04-05T06:50:59.292Z,99409.55
2019-04-05T06:53:26.912Z,99405.05
2019-04-05T06:55:54.452Z,99407.19
2019-04-05T06:58:28.906Z,99409.08
2019-04-05T07:00:57.204Z,99410.14
2019-04-05T07:03:21.593Z,99414.30
2019-04-05T07:05:49.211Z,99416.78
2019-04-05T07:08:18.375Z,99423.09
2019-04-05T07:10:46.193Z,99421.89
2019-04-05T07:13:13.911Z,99421.42
2019-04-05T07:15:41.472Z,99424.73
2019-04-05T07:18:09.172Z,99429.23
2019-04-05T07:20:36.793Z,99425.20
2019-04-05T07:23:04.615Z,99434.93
2019-04-05T07:25:32.231Z,99435.53
2019-04-05T07:27:59.971Z,99429.70
2019-04-05T07:30:28.945Z,99430.30
2019-04-05T07:32:56.806Z,99436.37
2019-04-05T07:35:33.289Z,99436.47
2019-04-05T07:37:54.012Z,99438.48
2019-04-05T07:40:22.456Z,99440.38
2019-04-05T07:42:50.252Z,99445.36
2019-04-05T07:45:17.811Z,99436.60
2019-04-05T07:47:45.398Z,99425.94
2019-04-05T07:50:13.170Z,99415.84
2019-04-05T07:52:40.792Z,99420.78
2019-04-05T07:55:08.752Z,99418.33
2019-04-05T07:57:36.312Z,99418.31
2019-04-05T08:00:07.113Z,99415.30
2019-04-05T08:02:34.737Z,99407.98
2019-04-05T08:05:02.280Z,99412.36
2019-04-05T08:07:33.608Z,99411.65
2019-04-05T08:10:03.099Z,99420.90
2019-04-05T08:12:32.143Z,99429.20
2019-04-05T08:15:01.461Z,99432.40
2019-04-05T08:17:29.646Z,99421.70
2019-04-05T08:20:00.455Z,99419.54
2019-04-05T08:22:28.095Z,99428.89
2019-04-05T08:24:55.714Z,99435.34
2019-04-05T08:27:23.291Z,99436.34
2019-04-05T08:29:51.072Z,99432.41
2019-04-05T08:32:18.631Z,99435.53
2019-04-05T08:34:46.272Z,99431.94
2019-04-05T08:37:13.814Z,99426.84
2019-04-05T08:39:42.713Z,99434.80
2019-04-05T08:42:10.909Z,99437.30
2019-04-05T08:44:38.931Z,99432.38
2019-04-05T08:47:07.794Z,99432.52
2019-04-05T08:49:36.120Z,99428.49
2019-04-05T08:52:04.354Z,99426.78
2019-04-05T08:54:36.307Z,99434.30
2019-04-05T08:57:04.471Z,99432.72
2019-04-05T08:59:32.332Z,99431.62
2019-04-05T09:02:00.488Z,99431.81
2019-04-05T09:04:28.611Z,99436.79
2019-04-05T09:06:56.563Z,99438.41
2019-04-05T09:09:30.208Z,99432.41
2019-04-05T09:11:58.421Z,99433.06
2019-04-05T09:14:26.398Z,99429.37
2019-04-05T09:16:56.130Z,99422.13
2019-04-05T09:19:24.286Z,99426.45
2019-04-05T09:21:53.074Z,99430.28
2019-04-05T09:24:20.752Z,99439.63
2019-04-05T09:26:48.291Z,99444.30
2019-04-05T09:29:15.952Z,99440.45
2019-04-05T09:31:43.512Z,99443.66
2019-04-05T09:34:11.372Z,99443.52
2019-04-05T09:36:38.832Z,99442.59
2019-04-05T09:39:13.653Z,99444.60
2019-04-05T09:41:40.214Z,99442.52
2019-04-05T09:44:07.672Z,99443.53
2019-04-05T09:46:45.967Z,99445.92
2019-04-05T09:49:05.016Z,99436.50
2019-04-05T09:51:32.699Z,99437.33
2019-04-05T09:54:00.254Z,99443.70
2019-04-05T09:56:28.292Z,99449.16
2019-04-05T09:58:55.873Z,99444.48
2019-04-05T10:01:23.533Z,99438.48
2019-04-05T10:03:51.194Z,99438.30
2019-04-05T10:06:18.892Z,99439.61
2019-04-05T10:08:46.417Z,99438.08
2019-04-05T10:11:14.252Z,99438.78
2019-04-05T10:13:43.611Z,99439.27
2019-04-05T10:16:11.470Z,99443.77
2019-04-05T10:18:39.232Z,99442.08
2019-04-05T10:21:06.793Z,99436.73
2019-04-05T10:23:34.392Z,99428.92
2019-04-05T10:26:02.995Z,99438.45
2019-04-05T10:28:30.652Z,99435.61
2019-04-05T10:30:58.633Z,99448.58
2019-04-05T10:33:26.311Z,99437.06
2019-04-05T10:35:54.132Z,99440.20
2019-04-05T10:38:21.791Z,99455.38
2019-04-05T10:40:49.539Z,99448.17
2019-04-05T10:43:17.113Z,99447.98
2019-04-05T10:45:44.752Z,99450.79
2019-04-05T10:48:12.311Z,99444.13
2019-04-05T10:50:39.912Z,99443.65
2019-04-05T10:53:07.512Z,99441.67
2019-04-05T10:55:36.760Z,99442.38
2019-04-05T10:58:04.992Z,99446.75
2019-04-05T11:00:32.592Z,99445.30
2019-04-05T11:03:00.377Z,99448.73
2019-04-05T11:05:28.032Z,99446.60
2019-04-05T11:07:55.613Z,99442.30
2019-04-05T11:10:23.291Z,99440.58
2019-04-05T11:12:50.912Z,99438.56
2019-04-05T11:15:18.646Z,99438.30
2019-04-05T11:17:47.248Z,99445.70
2019-04-05T11:20:22.850Z,99446.91
2019-04-05T11:22:46.690Z,99448.12
2019-04-05T11:25:20.582Z,99442.48
2019-04-05T11:27:48.032Z,99440.47
2019-04-05T11:30:30.933Z,99447.45
2019-04-05T11:32:58.871Z,99441.17
2019-04-05T11:35:28.933Z,99446.00
2019-04-05T11:37:59.631Z,99443.34
2019-04-05T11:40:28.435Z,99448.21
2019-04-05T11:42:58.406Z,99442.86
2019-04-05T11:45:26.322Z,99442.67
2019-04-05T11:47:57.708Z,99448.12
2019-04-05T11:50:34.533Z,99455.30
2019-04-05T11:53:01.415Z,99451.70
2019-04-05T11:55:31.622Z,99451.46
2019-04-05T11:57:59.512Z,99446.42
2019-04-05T12:00:52.248Z,99445.79
2019-04-05T12:03:20.713Z,99449.21
2019-04-05T12:05:48.451Z,99445.02
2019-04-05T12:08:16.272Z,99441.36
2019-04-05T12:10:44.072Z,99435.03
2019-04-05T12:13:11.832Z,99442.23
2019-04-05T12:15:44.311Z,99440.27
2019-04-05T12:18:16.705Z,99438.38
2019-04-05T12:20:59.757Z,99444.43
2019-04-05T12:23:22.052Z,99443.27
2019-04-05T12:25:56.953Z,99444.50
2019-04-05T12:28:24.614Z,99441.72
2019-04-05T12:31:01.626Z,99444.83
2019-04-05T12:33:30.426Z,99439.11
2019-04-05T12:35:58.652Z,99444.51
2019-04-05T12:38:31.551Z,99436.48
2019-04-05T12:41:02.096Z,99438.83
2019-04-05T12:43:31.194Z,99438.03
2019-04-05T12:45:59.192Z,99441.21
2019-04-05T12:48:26.932Z,99442.80
2019-04-05T12:51:01.126Z,99438.30
2019-04-05T12:53:26.285Z,99440.27
2019-04-05T12:55:56.871Z,99438.03
2019-04-05T12:58:25.852Z,99438.47
2019-04-05T13:00:53.688Z,99442.34
2019-04-05T13:03:23.131Z,99444.19
2019-04-05T13:05:51.583Z,99441.67
2019-04-05T13:08:23.744Z,99438.74
2019-04-05T13:10:51.611Z,99438.75
2019-04-05T13:13:19.392Z,99430.45
2019-04-05T13:15:47.072Z,99428.61
2019-04-05T13:18:14.772Z,99431.58
2019-04-05T13:20:42.372Z,99428.35
2019-04-05T13:23:11.291Z,99435.11
2019-04-05T13:25:40.944Z,99429.50
2019-04-05T13:28:13.492Z,99427.27
2019-04-05T13:30:38.093Z,99429.06
2019-04-05T13:33:05.792Z,99425.35
2019-04-05T13:35:33.472Z,99422.15
2019-04-05T13:38:01.424Z,99427.14
2019-04-05T13:40:29.603Z,99426.34
2019-04-05T13:43:01.693Z,99425.73
2019-04-05T13:45:28.772Z,99432.92
2019-04-05T13:47:56.452Z,99428.70
2019-04-05T13:50:24.395Z,99427.42
2019-04-05T13:52:52.132Z,99419.98
2019-04-05T13:55:19.741Z,99419.80
2019-04-05T13:57:47.472Z,99413.83
2019-04-05T14:00:18.119Z,99415.20
2019-04-05T14:02:46.212Z,99406.39
2019-04-05T14:05:13.991Z,99407.26
2019-04-05T14:07:42.053Z,99401.66
2019-04-05T14:10:12.343Z,99401.66
2019-04-05T14:12:40.117Z,99401.58
2019-04-05T14:15:11.296Z,99401.69
2019-04-05T14:17:38.933Z,99393.31
2019-04-05T14:20:09.058Z,99395.11
2019-04-05T14:22:36.622Z,99393.54
2019-04-05T14:25:05.275Z,99390.32
2019-04-05T14:27:35.140Z,99388.31
2019-04-05T14:30:03.150Z,99385.36
2019-04-05T14:32:31.311Z,99386.55
2019-04-05T14:34:59.112Z,99390.44
2019-04-05T14:37:28.232Z,99391.79
2019-04-05T14:39:55.971Z,99386.40
2019-04-05T14:45:21.492Z,99378.80
2019-04-05T14:47:49.175Z,99382.15
2019-04-05T14:50:17.134Z,99374.52
2019-04-05T14:52:45.332Z,99372.36
2019-04-05T14:55:13.216Z,99376.50
2019-04-05T14:57:41.760Z,99380.77
2019-04-05T15:00:14.585Z,99380.56
2019-04-05T15:02:43.780Z,99371.70
2019-04-05T15:05:10.677Z,99381.73
2019-04-05T15:07:38.233Z,99385.73
2019-04-05T15:10:07.983Z,99377.99
2019-04-05T15:12:49.967Z,99381.33
2019-04-05T15:15:18.752Z,99377.51
2019-04-05T15:17:48.568Z,99382.89
2019-04-05T15:20:17.575Z,99379.23
2019-04-05T15:22:45.128Z,99372.44
2019-04-05T15:25:16.665Z,99370.56
2019-04-05T15:27:42.626Z,99378.80
2019-04-05T15:30:10.277Z,99378.75
2019-04-05T15:32:37.816Z,99376.06
2019-04-05T15:35:05.966Z,99372.58
2019-04-05T15:37:33.417Z,99378.64
2019-04-05T15:40:01.131Z,99381.92
2019-04-05T15:42:28.708Z,99390.74
2019-04-05T15:44:56.351Z,99385.25
2019-04-05T15:47:23.986Z,99391.42
2019-04-05T15:49:52.031Z,99388.77
2019-04-05T15:52:20.407Z,99390.59
2019-04-05T15:54:48.424Z,99380.36
2019-04-05T15:57:16.147Z,99386.45
2019-04-05T15:59:45.079Z,99388.24
2019-04-05T16:02:13.116Z,99383.95
2019-04-05T16:04:40.861Z,99383.50
2019-04-05T16:07:08.382Z,99390.97
2019-04-05T16:09:36.066Z,99387.87
2019-04-05T16:12:04.196Z,99393.06
2019-04-05T16:14:34.243Z,99391.60
2019-04-05T16:17:02.182Z,99405.34
2019-04-05T16:19:29.694Z,99403.66
2019-04-05T16:21:57.187Z,99396.02
2019-04-05T16:24:24.706Z,99405.35
2019-04-05T16:26:52.354Z,99409.61
2019-04-05T16:29:20.178Z,99407.22
2019-04-05T16:31:47.877Z,99412.00
2019-04-05T16:34:16.707Z,99410.98
2019-04-05T16:36:44.279Z,99416.78
2019-04-05T16:39:14.763Z,99417.97
2019-04-05T16:41:42.409Z,99414.80
2019-04-05T16:44:10.031Z,99411.73
2019-04-05T16:46:37.611Z,99406.27
2019-04-05T16:49:05.263Z,99406.87
2019-04-05T16:51:32.949Z,99408.29
2019-04-05T16:54:01.619Z,99407.81
2019-04-05T16:56:29.774Z,99401.27
2019-04-05T16:58:57.752Z,99397.50
2019-04-05T17:01:27.354Z,99402.12
2019-04-05T17:03:55.011Z,99402.12
2019-04-05T17:06:22.612Z,99405.42
2019-04-05T17:08:50.277Z,99405.11
2019-04-05T17:11:17.997Z,99402.47
2019-04-05T17:13:45.921Z,99408.74
2019-04-05T17:16:13.913Z,99418.42
2019-04-05T17:18:41.572Z,99418.20
2019-04-05T17:21:09.450Z,99411.73
2019-04-05T17:23:37.627Z,99409.13
2019-04-05T17:26:05.621Z,99409.98
2019-04-05T17:28:33.731Z,99414.95
2019-04-05T17:31:01.593Z,99409.13
2019-04-05T17:33:30.462Z,99417.08
2019-04-05T17:35:58.450Z,99414.77
2019-04-05T17:38:26.260Z,99408.55
2019-04-05T17:40:54.031Z,99409.67
2019-04-05T17:43:21.847Z,99405.05
2019-04-05T17:45:49.792Z,99406.09
2019-04-05T17:48:17.717Z,99410.58
2019-04-05T17:50:45.591Z,99419.94
2019-04-05T17:53:13.634Z,99428.72
2019-04-05T17:55:42.712Z,99425.28
2019-04-05T17:58:10.667Z,99429.40
2019-04-05T18:00:38.932Z,99435.94
2019-04-05T18:03:07.016Z,99423.34
2019-04-05T18:05:34.996Z,99423.43
2019-04-05T18:08:02.957Z,99428.20
2019-04-05T18:10:30.806Z,99431.61
2019-04-05T18:12:59.821Z,99431.58
2019-04-05T18:15:27.757Z,99433.32
2019-04-05T18:17:55.467Z,99439.77
2019-04-05T18:20:23.346Z,99445.66
2019-04-05T18:22:51.143Z,99440.56
2019-04-05T18:25:19.499Z,99442.13
2019-04-05T18:27:47.426Z,99442.25
2019-04-05T18:30:15.487Z,99445.09
2019-04-05T18:32:43.451Z,99444.13
2019-04-05T18:35:11.397Z,99454.32
2019-04-05T18:37:39.353Z,99442.67
2019-04-05T18:40:07.357Z,99448.83
2019-04-05T18:42:35.332Z,99452.79
2019-04-05T18:45:03.321Z,99450.31
2019-04-05T18:47:31.352Z,99457.56
2019-04-05T18:50:03.086Z,99456.97
2019-04-05T18:52:29.487Z,99452.87
2019-04-05T18:54:57.428Z,99464.38
2019-04-05T18:57:25.267Z,99464.06
2019-04-05T18:59:53.127Z,99468.78
2019-04-05T19:02:21.106Z,99464.83
2019-04-05T19:04:48.957Z,99473.61
2019-04-05T19:07:17.012Z,99469.46
2019-04-05T19:09:44.977Z,99470.52
2019-04-05T19:12:14.357Z,99471.59
2019-04-05T19:14:42.166Z,99473.64
2019-04-05T19:17:23.188Z,99468.16
2019-04-05T19:19:40.896Z,99477.83
2019-04-05T19:22:08.786Z,99479.27
2019-04-05T19:24:37.160Z,99474.87
2019-04-05T19:27:05.142Z,99477.17
2019-04-05T19:29:32.972Z,99479.05
2019-04-05T19:49:29.489Z,99473.98
2019-04-05T19:51:57.347Z,99473.30
2019-04-05T19:54:26.494Z,99469.38
2019-04-05T19:56:54.497Z,99470.20
2019-04-05T19:59:23.392Z,99468.41
2019-04-05T20:01:51.353Z,99469.38
2019-04-05T20:04:19.346Z,99474.72
2019-04-05T20:06:47.273Z,99467.66
2019-04-05T20:09:16.502Z,99472.99
2019-04-05T20:11:44.447Z,99466.39
2019-04-05T20:14:13.346Z,99469.05
2019-04-05T20:16:41.257Z,99468.50
2019-04-05T20:19:09.169Z,99471.37
2019-04-05T20:21:36.927Z,99459.79
2019-04-05T20:24:13.677Z,99467.60
2019-04-05T20:26:34.588Z,99464.39
2019-04-05T20:29:02.295Z,99460.58
2019-04-05T20:31:30.526Z,99470.48
2019-04-05T20:33:59.486Z,99476.76
2019-04-05T20:36:27.247Z,99474.52
2019-04-05T20:38:55.166Z,99467.41
2019-04-05T20:41:22.829Z,99462.70
2019-04-05T20:43:51.821Z,99466.14
2019-04-05T20:46:19.597Z,99464.16
2019-04-05T20:48:47.346Z,99458.71
2019-04-05T20:51:15.143Z,99464.34
2019-04-05T20:53:42.767Z,99463.23
2019-04-05T20:56:10.451Z,99463.64
2019-04-05T20:58:38.147Z,99465.31
2019-04-05T21:01:05.762Z,99461.59
2019-04-05T21:03:33.257Z,99452.87
2019-04-05T21:06:00.761Z,99443.95
2019-04-05T21:08:29.335Z,99436.14
2019-04-05T21:10:58.874Z,99444.36
2019-04-05T21:13:26.163Z,99443.65
2019-04-05T21:15:53.954Z,99442.41
2019-04-05T21:18:22.017Z,99447.53
2019-04-05T21:20:49.487Z,99450.55
2019-04-05T21:23:17.001Z,99443.38
2019-04-05T21:25:44.931Z,99448.61
2019-04-05T21:28:12.601Z,99453.13
2019-04-05T21:30:40.202Z,99456.56
2019-04-05T21:33:07.682Z,99455.69
2019-04-05T21:35:35.576Z,99459.44
2019-04-05T21:38:03.532Z,99462.95
2019-04-05T21:40:34.196Z,99466.17
2019-04-05T21:43:02.080Z,99469.27
2019-04-05T21:45:32.014Z,99469.53
2019-04-05T21:48:01.689Z,99469.53
2019-04-05T21:50:31.883Z,99465.38
2019-04-05T21:52:59.661Z,99467.05
2019-04-05T21:55:28.171Z,99464.78
2019-04-05T21:57:55.874Z,99464.16
2019-04-05T22:00:26.098Z,99476.80
2019-04-05T22:02:55.820Z,99474.16
2019-04-05T22:05:23.872Z,99473.73
2019-04-05T22:07:51.700Z,99472.66
2019-04-05T22:10:20.394Z,99468.02
2019-04-05T22:12:47.910Z,99455.66
2019-04-05T22:15:16.426Z,99453.19
2019-04-05T22:17:48.088Z,99446.05
2019-04-05T22:20:18.418Z,99443.33
2019-04-05T22:22:48.147Z,99446.31
2019-04-05T22:25:15.579Z,99442.13
2019-04-05T22:27:44.076Z,99445.71
2019-04-05T22:30:12.782Z,99446.79
2019-04-05T22:32:40.227Z,99449.43
2019-04-05T22:35:08.927Z,99450.63
2019-04-05T22:37:36.331Z,99448.09
2019-04-05T22:40:04.472Z,99458.33
2019-04-05T22:42:31.874Z,99456.20
2019-04-05T22:44:59.322Z,99453.49
2019-04-05T22:47:26.711Z,99453.47
2019-04-05T22:49:54.172Z,99455.31
2019-04-05T22:52:21.596Z,99464.54
2019-04-05T22:54:49.027Z,99465.00
2019-04-05T22:57:16.397Z,99466.87
2019-04-05T22:59:43.842Z,99470.82
2019-04-05T23:02:11.777Z,99479.58
2019-04-05T23:04:39.292Z,99476.62
2019-04-05T23:07:06.752Z,99472.50
2019-04-05T23:09:34.208Z,99470.11
2019-04-05T23:12:01.607Z,99474.88
2019-04-05T23:14:29.054Z,99472.50
2019-04-05T23:16:56.416Z,99476.77
2019-04-05T23:19:23.906Z,99473.94
2019-04-05T23:21:51.297Z,99478.20
2019-04-05T23:24:18.722Z,99471.42
2019-04-05T23:26:46.117Z,99468.09
2019-04-05T23:29:13.573Z,99471.79
2019-04-05T23:31:40.967Z,99470.69
2019-04-05T23:34:10.720Z,99468.30
2019-04-05T23:36:38.167Z,99466.97
2019-04-05T23:39:06.227Z,99466.56
2019-04-05T23:41:33.618Z,99465.38
2019-04-05T23:44:01.080Z,99460.12
2019-04-05T23:46:28.462Z,99452.84
2019-04-05T23:48:55.911Z,99448.69
2019-04-05T23:51:23.332Z,99447.16
2019-04-05T23:53:51.247Z,99446.70
2019-04-05T23:56:18.736Z,99436.80
2019-04-05T23:58:46.107Z,99435.13
